Aérodrome :
LOGIN :

S'inscrire | Disclaimer

   EN    FR    IT 

 










Légende :    VFR   VFR Marginal   IFR   IFR Intensif   IFR Très Intensif
Visi : 
Plafond : 
>= 8 km
>= 3000ft
5 à 8 km
1000 à 3000 ft
1500m à 5 km
500 à 1000 ft
800 à 1500m
200 à 500 ft
< 800m
< 200 ft
Symboles :   Orages  Brouillard  Fortes neiges  Fortes précipitations  Vent > 20 kt
SIGMETs :   Divers  Orages  Givrage  Turbulence  Onde Orograph.  Cendres Volcan.







- Altitude de l'aérodrome : 1504 ft
- Code IATA : PNA


LEPP - Noain Pamplona

DERNIER METAR :
  • 221400Z 34004KT 320V020 6000 -RA BKN005 OVC020 03/02 Q1011

METARs EXPIRÉS :
  • 221330Z 03004KT 350V060 5000 -RA BKN005 OVC020 04/03 Q1011
  • 221300Z 35003KT 320V030 6000 RA SCT006 OVC020 04/02 Q1012
  • 221238Z VRB02KT 5000 RA BKN007 BKN020 OVC028 04/03 Q1012
  • 221230Z VRB02KT 6000 -RA SCT007 BKN020 OVC028 04/02 Q1012
  • 221200Z 31001KT 6000 -RA SCT010 BKN025 OVC030 04/03 Q1013
  • 221130Z VRB01KT 9000 -RA SCT015 OVC030 04/02 Q1013

TAF TAF LEPP
Valide du 22 à 15h jusqu'au 23 à 15h UTC


221400Z 2215/2315 30009KT 9999 SCT020 BKN025 TX07/2310Z TN01/2306Z
TEMPO 2215/2315 3000 RA BKN005 BKN014
PROB40
TEMPO 2218/2306 3000 RASN BKN005 BKN010
PROB40
TEMPO 2300/2309 1500 +SHRA +RA SCT030TCU
Pas de NOTAMs connus pour ce terrain.
1 SIGMET publié pour la FIR Madrid (LECM) :
 
Onde orographique forte
LECM SIGMET 3 VALID 221300/221700 LEVA
LECM MADRID FIR/UIR SEV MTW FCST N OF LINE N4240 W001 - N4230 E00010 FL060/360 STNR NC=



MET'MAP, la Météo Aéronautique d'un coup d'oeil ! - Copyright ORBIFLY Décembre 2007 - Disclaimer

ORBIFLY MET'MAP TEAM :

Programmation & Développement : Alexandra Zaïnal
Conception & Développement : Baudouin d'Aumeries
Co-Programmation & Développement : Marc-Olivier Méhu
Soutien technique & logistique : Manuel Goepfert

Contact : metmap@orbifly.com




SOURCES & CREDITS :

   NOAA